sensor_id;sensor_type;location;lat;lon;timestamp;P1;durP1;ratioP1;P2;durP2;ratioP2
39930;SDS011;26635;-35.248;149.138;2023-07-13T00:02:01;4.50;;;2.00;;
39930;SDS011;26635;-35.248;149.138;2023-07-13T00:04:32;5.60;;;2.25;;
39930;SDS011;26635;-35.248;149.138;2023-07-13T00:07:03;5.70;;;2.17;;
39930;SDS011;26635;-35.248;149.138;2023-07-13T00:09:36;3.25;;;1.70;;
39930;SDS011;26635;-35.248;149.138;2023-07-13T00:12:21;3.38;;;1.88;;
39930;SDS011;26635;-35.248;149.138;2023-07-13T00:14:59;3.88;;;1.88;;
39930;SDS011;26635;-35.248;149.138;2023-07-13T00:17:31;5.47;;;2.03;;
39930;SDS011;26635;-35.248;149.138;2023-07-13T00:20:02;3.45;;;1.55;;
39930;SDS011;26635;-35.248;149.138;2023-07-13T00:22:33;5.22;;;2.22;;
39930;SDS011;26635;-35.248;149.138;2023-07-13T00:25:05;3.97;;;2.05;;
39930;SDS011;26635;-35.248;149.138;2023-07-13T00:27:36;5.82;;;3.35;;
39930;SDS011;26635;-35.248;149.138;2023-07-13T00:30:07;4.05;;;2.00;;
39930;SDS011;26635;-35.248;149.138;2023-07-13T00:32:39;3.72;;;2.22;;
39930;SDS011;26635;-35.248;149.138;2023-07-13T00:35:12;4.75;;;2.40;;
39930;SDS011;26635;-35.248;149.138;2023-07-13T00:37:44;4.00;;;2.17;;
39930;SDS011;26635;-35.248;149.138;2023-07-13T00:40:16;4.32;;;2.22;;
39930;SDS011;26635;-35.248;149.138;2023-07-13T00:42:51;3.80;;;2.08;;
39930;SDS011;26635;-35.248;149.138;2023-07-13T00:47:54;4.18;;;1.42;;
39930;SDS011;26635;-35.248;149.138;2023-07-13T00:50:26;3.80;;;2.05;;
39930;SDS011;26635;-35.248;149.138;2023-07-13T00:52:57;3.88;;;1.98;;
39930;SDS011;26635;-35.248;149.138;2023-07-13T00:55:32;4.00;;;1.70;;
39930;SDS011;26635;-35.248;149.138;2023-07-13T00:58:04;3.05;;;1.88;;
39930;SDS011;26635;-35.248;149.138;2023-07-13T01:00:35;3.53;;;1.65;;
39930;SDS011;26635;-35.248;149.138;2023-07-13T01:03:08;3.17;;;1.95;;
39930;SDS011;26635;-35.248;149.138;2023-07-13T01:05:38;3.28;;;1.83;;
39930;SDS011;26635;-35.248;149.138;2023-07-13T01:08:09;2.67;;;1.45;;
39930;SDS011;26635;-35.248;149.138;2023-07-13T01:10:40;3.58;;;1.45;;
39930;SDS011;26635;-35.248;149.138;2023-07-13T01:13:19;3.40;;;1.70;;
39930;SDS011;26635;-35.248;149.138;2023-07-13T01:15:50;3.05;;;1.58;;
39930;SDS011;26635;-35.248;149.138;2023-07-13T01:18:22;1.88;;;0.90;;
39930;SDS011;26635;-35.248;149.138;2023-07-13T01:20:56;2.53;;;1.20;;
39930;SDS011;26635;-35.248;149.138;2023-07-13T01:23:29;3.55;;;1.27;;
39930;SDS011;26635;-35.248;149.138;2023-07-13T01:26:02;2.95;;;1.10;;
39930;SDS011;26635;-35.248;149.138;2023-07-13T01:28:33;1.38;;;0.70;;
39930;SDS011;26635;-35.248;149.138;2023-07-13T01:31:07;2.88;;;0.88;;
39930;SDS011;26635;-35.248;149.138;2023-07-13T01:33:39;3.78;;;0.80;;
39930;SDS011;26635;-35.248;149.138;2023-07-13T01:36:11;2.20;;;1.02;;
39930;SDS011;26635;-35.248;149.138;2023-07-13T01:38:42;1.10;;;0.82;;
39930;SDS011;26635;-35.248;149.138;2023-07-13T01:41:14;1.63;;;0.93;;
39930;SDS011;26635;-35.248;149.138;2023-07-13T01:43:44;3.38;;;1.20;;
39930;SDS011;26635;-35.248;149.138;2023-07-13T01:46:16;2.10;;;1.00;;
39930;SDS011;26635;-35.248;149.138;2023-07-13T01:48:50;2.63;;;1.10;;
39930;SDS011;26635;-35.248;149.138;2023-07-13T01:51:21;2.40;;;1.02;;
39930;SDS011;26635;-35.248;149.138;2023-07-13T01:53:51;3.20;;;1.08;;
39930;SDS011;26635;-35.248;149.138;2023-07-13T01:56:22;1.45;;;0.70;;
39930;SDS011;26635;-35.248;149.138;2023-07-13T01:58:55;2.78;;;1.15;;
39930;SDS011;26635;-35.248;149.138;2023-07-13T02:01:26;1.63;;;0.80;;
39930;SDS011;26635;-35.248;149.138;2023-07-13T02:03:57;1.45;;;0.80;;
39930;SDS011;26635;-35.248;149.138;2023-07-13T02:06:28;2.25;;;1.10;;
39930;SDS011;26635;-35.248;149.138;2023-07-13T02:08:59;2.45;;;0.73;;
39930;SDS011;26635;-35.248;149.138;2023-07-13T02:11:30;1.92;;;0.82;;
39930;SDS011;26635;-35.248;149.138;2023-07-13T02:14:03;1.75;;;0.80;;
39930;SDS011;26635;-35.248;149.138;2023-07-13T02:16:34;1.92;;;0.60;;
39930;SDS011;26635;-35.248;149.138;2023-07-13T02:19:05;1.52;;;0.35;;
39930;SDS011;26635;-35.248;149.138;2023-07-13T02:21:36;1.40;;;0.30;;
39930;SDS011;26635;-35.248;149.138;2023-07-13T02:24:07;1.05;;;0.30;;
39930;SDS011;26635;-35.248;149.138;2023-07-13T02:26:38;2.50;;;1.00;;
39930;SDS011;26635;-35.248;149.138;2023-07-13T02:29:09;3.63;;;0.50;;
39930;SDS011;26635;-35.248;149.138;2023-07-13T02:31:41;1.77;;;0.30;;
39930;SDS011;26635;-35.248;149.138;2023-07-13T02:34:18;1.65;;;0.50;;
39930;SDS011;26635;-35.248;149.138;2023-07-13T02:36:50;2.38;;;0.40;;
39930;SDS011;26635;-35.248;149.138;2023-07-13T02:39:21;1.25;;;0.70;;
39930;SDS011;26635;-35.248;149.138;2023-07-13T02:41:53;2.80;;;0.57;;
39930;SDS011;26635;-35.248;149.138;2023-07-13T02:44:23;0.70;;;0.32;;
39930;SDS011;26635;-35.248;149.138;2023-07-13T02:46:54;0.98;;;0.30;;
39930;SDS011;26635;-35.248;149.138;2023-07-13T02:49:25;0.60;;;0.40;;
39930;SDS011;26635;-35.248;149.138;2023-07-13T02:51:57;1.48;;;0.32;;
39930;SDS011;26635;-35.248;149.138;2023-07-13T02:54:27;1.38;;;0.50;;
39930;SDS011;26635;-35.248;149.138;2023-07-13T02:56:57;2.22;;;0.50;;
39930;SDS011;26635;-35.248;149.138;2023-07-13T02:59:28;0.85;;;0.20;;
39930;SDS011;26635;-35.248;149.138;2023-07-13T03:02:00;1.75;;;0.82;;
39930;SDS011;26635;-35.248;149.138;2023-07-13T03:04:31;1.48;;;0.30;;
39930;SDS011;26635;-35.248;149.138;2023-07-13T03:07:01;1.67;;;0.47;;
39930;SDS011;26635;-35.248;149.138;2023-07-13T03:09:35;0.70;;;0.20;;
39930;SDS011;26635;-35.248;149.138;2023-07-13T03:12:06;1.92;;;0.60;;
39930;SDS011;26635;-35.248;149.138;2023-07-13T03:14:37;1.25;;;0.30;;
39930;SDS011;26635;-35.248;149.138;2023-07-13T03:17:08;0.68;;;0.15;;
39930;SDS011;26635;-35.248;149.138;2023-07-13T03:19:38;1.17;;;0.30;;
39930;SDS011;26635;-35.248;149.138;2023-07-13T03:22:09;2.65;;;0.73;;
39930;SDS011;26635;-35.248;149.138;2023-07-13T03:24:40;1.50;;;0.10;;
39930;SDS011;26635;-35.248;149.138;2023-07-13T03:27:12;1.30;;;0.20;;
39930;SDS011;26635;-35.248;149.138;2023-07-13T03:29:44;0.47;;;0.20;;
39930;SDS011;26635;-35.248;149.138;2023-07-13T03:32:15;1.13;;;0.20;;
39930;SDS011;26635;-35.248;149.138;2023-07-13T03:34:46;1.02;;;0.28;;
39930;SDS011;26635;-35.248;149.138;2023-07-13T03:37:16;1.52;;;0.30;;
39930;SDS011;26635;-35.248;149.138;2023-07-13T03:39:47;0.40;;;0.15;;
39930;SDS011;26635;-35.248;149.138;2023-07-13T03:42:18;0.55;;;0.20;;
39930;SDS011;26635;-35.248;149.138;2023-07-13T03:44:52;1.90;;;0.28;;
39930;SDS011;26635;-35.248;149.138;2023-07-13T03:47:22;1.00;;;0.22;;
39930;SDS011;26635;-35.248;149.138;2023-07-13T03:49:53;1.75;;;1.13;;
39930;SDS011;26635;-35.248;149.138;2023-07-13T03:52:25;1.25;;;0.60;;
39930;SDS011;26635;-35.248;149.138;2023-07-13T03:54:56;2.05;;;0.30;;
39930;SDS011;26635;-35.248;149.138;2023-07-13T03:57:28;0.95;;;0.30;;
39930;SDS011;26635;-35.248;149.138;2023-07-13T04:00:00;0.43;;;0.10;;
39930;SDS011;26635;-35.248;149.138;2023-07-13T04:02:33;0.60;;;0.10;;
39930;SDS011;26635;-35.248;149.138;2023-07-13T04:05:08;0.30;;;0.10;;
39930;SDS011;26635;-35.248;149.138;2023-07-13T04:07:38;0.63;;;0.20;;
39930;SDS011;26635;-35.248;149.138;2023-07-13T04:10:09;0.57;;;0.20;;
39930;SDS011;26635;-35.248;149.138;2023-07-13T04:12:40;0.38;;;0.30;;
39930;SDS011;26635;-35.248;149.138;2023-07-13T04:15:11;1.95;;;0.47;;
39930;SDS011;26635;-35.248;149.138;2023-07-13T04:17:42;0.95;;;0.30;;
39930;SDS011;26635;-35.248;149.138;2023-07-13T04:20:13;0.52;;;0.17;;
39930;SDS011;26635;-35.248;149.138;2023-07-13T04:22:46;1.75;;;0.52;;
39930;SDS011;26635;-35.248;149.138;2023-07-13T04:25:17;0.40;;;0.10;;
39930;SDS011;26635;-35.248;149.138;2023-07-13T04:27:48;0.35;;;0.10;;
39930;SDS011;26635;-35.248;149.138;2023-07-13T04:30:20;0.30;;;0.17;;
39930;SDS011;26635;-35.248;149.138;2023-07-13T04:32:51;0.82;;;0.30;;
39930;SDS011;26635;-35.248;149.138;2023-07-13T04:35:22;1.65;;;0.20;;
39930;SDS011;26635;-35.248;149.138;2023-07-13T04:37:53;0.93;;;0.40;;
39930;SDS011;26635;-35.248;149.138;2023-07-13T04:40:27;0.50;;;0.20;;
39930;SDS011;26635;-35.248;149.138;2023-07-13T04:42:58;1.70;;;0.45;;
39930;SDS011;26635;-35.248;149.138;2023-07-13T04:45:29;0.82;;;0.20;;
39930;SDS011;26635;-35.248;149.138;2023-07-13T04:48:00;0.30;;;0.20;;
39930;SDS011;26635;-35.248;149.138;2023-07-13T04:50:30;0.38;;;0.20;;
39930;SDS011;26635;-35.248;149.138;2023-07-13T04:53:01;1.85;;;0.65;;
39930;SDS011;26635;-35.248;149.138;2023-07-13T04:55:32;0.43;;;0.22;;
39930;SDS011;26635;-35.248;149.138;2023-07-13T04:58:03;1.80;;;0.20;;
39930;SDS011;26635;-35.248;149.138;2023-07-13T05:00:34;1.75;;;0.20;;
39930;SDS011;26635;-35.248;149.138;2023-07-13T05:03:05;0.80;;;0.20;;
39930;SDS011;26635;-35.248;149.138;2023-07-13T05:05:36;0.17;;;0.10;;
39930;SDS011;26635;-35.248;149.138;2023-07-13T05:08:08;0.47;;;0.25;;
39930;SDS011;26635;-35.248;149.138;2023-07-13T05:10:54;1.50;;;0.20;;
39930;SDS011;26635;-35.248;149.138;2023-07-13T05:13:27;0.65;;;0.30;;
39930;SDS011;26635;-35.248;149.138;2023-07-13T05:16:01;0.98;;;0.30;;
39930;SDS011;26635;-35.248;149.138;2023-07-13T05:18:36;0.65;;;0.30;;
39930;SDS011;26635;-35.248;149.138;2023-07-13T05:21:10;0.32;;;0.30;;
39930;SDS011;26635;-35.248;149.138;2023-07-13T05:23:42;0.60;;;0.40;;
39930;SDS011;26635;-35.248;149.138;2023-07-13T05:26:13;0.88;;;0.30;;
39930;SDS011;26635;-35.248;149.138;2023-07-13T05:28:44;1.30;;;0.20;;
39930;SDS011;26635;-35.248;149.138;2023-07-13T05:31:14;0.38;;;0.20;;
39930;SDS011;26635;-35.248;149.138;2023-07-13T05:33:46;0.20;;;0.10;;
39930;SDS011;26635;-35.248;149.138;2023-07-13T05:36:17;0.50;;;0.15;;
39930;SDS011;26635;-35.248;149.138;2023-07-13T05:38:48;1.08;;;0.57;;
39930;SDS011;26635;-35.248;149.138;2023-07-13T05:41:19;0.22;;;0.20;;
39930;SDS011;26635;-35.248;149.138;2023-07-13T05:43:50;0.32;;;0.13;;
39930;SDS011;26635;-35.248;149.138;2023-07-13T05:46:21;0.38;;;0.20;;
39930;SDS011;26635;-35.248;149.138;2023-07-13T05:48:52;0.40;;;0.30;;
39930;SDS011;26635;-35.248;149.138;2023-07-13T05:51:23;0.38;;;0.10;;
39930;SDS011;26635;-35.248;149.138;2023-07-13T05:53:54;0.63;;;0.30;;
39930;SDS011;26635;-35.248;149.138;2023-07-13T05:56:25;1.23;;;0.20;;
39930;SDS011;26635;-35.248;149.138;2023-07-13T05:58:56;0.90;;;0.20;;
39930;SDS011;26635;-35.248;149.138;2023-07-13T06:01:26;1.45;;;0.50;;
39930;SDS011;26635;-35.248;149.138;2023-07-13T06:03:59;0.65;;;0.20;;
39930;SDS011;26635;-35.248;149.138;2023-07-13T06:06:30;1.00;;;0.40;;
39930;SDS011;26635;-35.248;149.138;2023-07-13T06:09:01;0.28;;;0.20;;
39930;SDS011;26635;-35.248;149.138;2023-07-13T06:11:32;0.63;;;0.20;;
39930;SDS011;26635;-35.248;149.138;2023-07-13T06:14:04;1.48;;;0.40;;
39930;SDS011;26635;-35.248;149.138;2023-07-13T06:16:35;0.60;;;0.30;;
39930;SDS011;26635;-35.248;149.138;2023-07-13T06:19:06;2.10;;;0.10;;
39930;SDS011;26635;-35.248;149.138;2023-07-13T06:21:36;0.85;;;0.20;;
39930;SDS011;26635;-35.248;149.138;2023-07-13T06:24:07;0.40;;;0.20;;
39930;SDS011;26635;-35.248;149.138;2023-07-13T06:26:37;0.90;;;0.30;;
39930;SDS011;26635;-35.248;149.138;2023-07-13T06:29:10;1.13;;;0.28;;
39930;SDS011;26635;-35.248;149.138;2023-07-13T06:31:43;0.88;;;0.50;;
39930;SDS011;26635;-35.248;149.138;2023-07-13T06:34:14;0.80;;;0.47;;
39930;SDS011;26635;-35.248;149.138;2023-07-13T06:36:45;1.08;;;0.25;;
39930;SDS011;26635;-35.248;149.138;2023-07-13T06:39:15;0.32;;;0.20;;
39930;SDS011;26635;-35.248;149.138;2023-07-13T06:41:47;0.60;;;0.30;;
39930;SDS011;26635;-35.248;149.138;2023-07-13T06:44:19;2.45;;;0.40;;
39930;SDS011;26635;-35.248;149.138;2023-07-13T06:46:50;1.20;;;0.47;;
39930;SDS011;26635;-35.248;149.138;2023-07-13T06:49:21;0.43;;;0.10;;
39930;SDS011;26635;-35.248;149.138;2023-07-13T06:51:52;1.95;;;0.40;;
39930;SDS011;26635;-35.248;149.138;2023-07-13T06:54:27;1.75;;;0.57;;
39930;SDS011;26635;-35.248;149.138;2023-07-13T06:56:58;4.35;;;1.15;;
39930;SDS011;26635;-35.248;149.138;2023-07-13T06:59:33;2.70;;;0.70;;
39930;SDS011;26635;-35.248;149.138;2023-07-13T07:02:04;3.78;;;1.42;;
39930;SDS011;26635;-35.248;149.138;2023-07-13T07:04:35;2.10;;;1.10;;
39930;SDS011;26635;-35.248;149.138;2023-07-13T07:07:06;3.75;;;0.90;;
39930;SDS011;26635;-35.248;149.138;2023-07-13T07:09:37;1.58;;;0.63;;
39930;SDS011;26635;-35.248;149.138;2023-07-13T07:12:09;3.38;;;1.67;;
39930;SDS011;26635;-35.248;149.138;2023-07-13T07:14:41;2.63;;;1.88;;
39930;SDS011;26635;-35.248;149.138;2023-07-13T07:17:13;4.53;;;2.25;;
39930;SDS011;26635;-35.248;149.138;2023-07-13T07:19:48;3.55;;;1.77;;
39930;SDS011;26635;-35.248;149.138;2023-07-13T07:22:19;2.28;;;1.05;;
39930;SDS011;26635;-35.248;149.138;2023-07-13T07:24:51;1.95;;;1.35;;
39930;SDS011;26635;-35.248;149.138;2023-07-13T07:27:24;3.65;;;2.05;;
39930;SDS011;26635;-35.248;149.138;2023-07-13T07:29:59;1.52;;;1.10;;
39930;SDS011;26635;-35.248;149.138;2023-07-13T07:32:33;1.73;;;1.17;;
39930;SDS011;26635;-35.248;149.138;2023-07-13T07:35:08;2.28;;;1.38;;
39930;SDS011;26635;-35.248;149.138;2023-07-13T07:37:39;1.10;;;0.90;;
39930;SDS011;26635;-35.248;149.138;2023-07-13T07:40:13;2.75;;;0.60;;
39930;SDS011;26635;-35.248;149.138;2023-07-13T07:42:47;0.43;;;0.40;;
39930;SDS011;26635;-35.248;149.138;2023-07-13T07:45:18;0.82;;;0.50;;
39930;SDS011;26635;-35.248;149.138;2023-07-13T07:47:49;0.63;;;0.40;;
39930;SDS011;26635;-35.248;149.138;2023-07-13T07:50:20;1.08;;;0.38;;
39930;SDS011;26635;-35.248;149.138;2023-07-13T07:52:51;2.78;;;0.60;;
39930;SDS011;26635;-35.248;149.138;2023-07-13T07:55:22;2.05;;;0.70;;
39930;SDS011;26635;-35.248;149.138;2023-07-13T07:58:00;1.08;;;0.60;;
39930;SDS011;26635;-35.248;149.138;2023-07-13T08:00:51;1.10;;;0.70;;
39930;SDS011;26635;-35.248;149.138;2023-07-13T08:03:25;2.78;;;0.60;;
39930;SDS011;26635;-35.248;149.138;2023-07-13T08:06:16;2.47;;;1.10;;
39930;SDS011;26635;-35.248;149.138;2023-07-13T08:08:51;5.80;;;2.33;;
39930;SDS011;26635;-35.248;149.138;2023-07-13T08:11:23;4.07;;;1.90;;
39930;SDS011;26635;-35.248;149.138;2023-07-13T08:13:59;5.60;;;2.20;;
39930;SDS011;26635;-35.248;149.138;2023-07-13T08:16:33;11.48;;;4.25;;
39930;SDS011;26635;-35.248;149.138;2023-07-13T08:19:03;6.90;;;2.67;;
39930;SDS011;26635;-35.248;149.138;2023-07-13T08:21:34;5.63;;;2.97;;
39930;SDS011;26635;-35.248;149.138;2023-07-13T08:24:05;9.23;;;3.95;;
39930;SDS011;26635;-35.248;149.138;2023-07-13T08:26:36;5.65;;;2.80;;
39930;SDS011;26635;-35.248;149.138;2023-07-13T08:29:08;5.78;;;2.70;;
39930;SDS011;26635;-35.248;149.138;2023-07-13T08:31:45;2.40;;;1.40;;
39930;SDS011;26635;-35.248;149.138;2023-07-13T08:34:16;3.70;;;1.33;;
39930;SDS011;26635;-35.248;149.138;2023-07-13T08:36:50;2.25;;;1.02;;
39930;SDS011;26635;-35.248;149.138;2023-07-13T08:39:22;2.72;;;1.10;;
39930;SDS011;26635;-35.248;149.138;2023-07-13T08:41:57;3.40;;;0.90;;
39930;SDS011;26635;-35.248;149.138;2023-07-13T08:48:26;30.13;;;15.70;;
39930;SDS011;26635;-35.248;149.138;2023-07-13T08:53:50;5.88;;;3.40;;
39930;SDS011;26635;-35.248;149.138;2023-07-13T08:56:28;3.25;;;1.30;;
39930;SDS011;26635;-35.248;149.138;2023-07-13T08:59:02;4.00;;;1.85;;
39930;SDS011;26635;-35.248;149.138;2023-07-13T09:04:59;4.18;;;1.20;;
39930;SDS011;26635;-35.248;149.138;2023-07-13T09:08:01;2.00;;;1.40;;
39930;SDS011;26635;-35.248;149.138;2023-07-13T09:11:49;2.28;;;1.23;;
39930;SDS011;26635;-35.248;149.138;2023-07-13T09:14:25;2.97;;;1.30;;
39930;SDS011;26635;-35.248;149.138;2023-07-13T09:17:03;1.77;;;1.33;;
39930;SDS011;26635;-35.248;149.138;2023-07-13T09:19:40;4.10;;;2.00;;
39930;SDS011;26635;-35.248;149.138;2023-07-13T09:22:14;3.53;;;1.38;;
39930;SDS011;26635;-35.248;149.138;2023-07-13T09:27:31;2.53;;;1.50;;
39930;SDS011;26635;-35.248;149.138;2023-07-13T09:32:45;2.78;;;1.73;;
39930;SDS011;26635;-35.248;149.138;2023-07-13T09:35:24;4.18;;;2.35;;
39930;SDS011;26635;-35.248;149.138;2023-07-13T09:38:12;3.72;;;2.97;;
39930;SDS011;26635;-35.248;149.138;2023-07-13T09:41:15;4.07;;;2.72;;
39930;SDS011;26635;-35.248;149.138;2023-07-13T09:44:08;6.57;;;4.15;;
39930;SDS011;26635;-35.248;149.138;2023-07-13T09:46:54;3.58;;;2.20;;
39930;SDS011;26635;-35.248;149.138;2023-07-13T09:49:28;5.23;;;2.33;;
39930;SDS011;26635;-35.248;149.138;2023-07-13T09:52:05;5.95;;;2.60;;
39930;SDS011;26635;-35.248;149.138;2023-07-13T09:54:44;4.70;;;2.40;;
39930;SDS011;26635;-35.248;149.138;2023-07-13T10:00:29;7.90;;;2.20;;
39930;SDS011;26635;-35.248;149.138;2023-07-13T10:03:04;3.42;;;1.95;;
39930;SDS011;26635;-35.248;149.138;2023-07-13T10:05:47;5.57;;;1.95;;
39930;SDS011;26635;-35.248;149.138;2023-07-13T10:08:23;5.95;;;3.08;;
39930;SDS011;26635;-35.248;149.138;2023-07-13T10:11:26;4.15;;;1.88;;
39930;SDS011;26635;-35.248;149.138;2023-07-13T10:14:13;4.85;;;2.17;;
39930;SDS011;26635;-35.248;149.138;2023-07-13T10:16:49;4.55;;;2.30;;
39930;SDS011;26635;-35.248;149.138;2023-07-13T10:19:30;4.78;;;1.83;;
39930;SDS011;26635;-35.248;149.138;2023-07-13T10:25:02;15.23;;;6.28;;
39930;SDS011;26635;-35.248;149.138;2023-07-13T10:27:43;11.15;;;5.05;;
39930;SDS011;26635;-35.248;149.138;2023-07-13T10:33:05;8.68;;;4.07;;
39930;SDS011;26635;-35.248;149.138;2023-07-13T10:35:46;7.60;;;3.60;;
39930;SDS011;26635;-35.248;149.138;2023-07-13T10:38:29;5.60;;;2.88;;
39930;SDS011;26635;-35.248;149.138;2023-07-13T10:41:17;10.52;;;4.18;;
39930;SDS011;26635;-35.248;149.138;2023-07-13T10:43:50;9.75;;;4.47;;
39930;SDS011;26635;-35.248;149.138;2023-07-13T10:46:25;8.80;;;5.47;;
39930;SDS011;26635;-35.248;149.138;2023-07-13T10:49:00;14.30;;;6.85;;
39930;SDS011;26635;-35.248;149.138;2023-07-13T10:51:34;16.10;;;7.13;;
39930;SDS011;26635;-35.248;149.138;2023-07-13T10:56:52;16.13;;;7.18;;
39930;SDS011;26635;-35.248;149.138;2023-07-13T10:59:37;9.85;;;5.22;;
39930;SDS011;26635;-35.248;149.138;2023-07-13T11:02:15;12.65;;;6.72;;
39930;SDS011;26635;-35.248;149.138;2023-07-13T11:04:51;11.32;;;6.10;;
39930;SDS011;26635;-35.248;149.138;2023-07-13T11:07:26;10.70;;;4.70;;
39930;SDS011;26635;-35.248;149.138;2023-07-13T11:10:00;14.13;;;6.93;;
39930;SDS011;26635;-35.248;149.138;2023-07-13T11:12:51;9.95;;;5.00;;
39930;SDS011;26635;-35.248;149.138;2023-07-13T11:15:44;11.90;;;4.47;;
39930;SDS011;26635;-35.248;149.138;2023-07-13T11:18:22;9.30;;;4.50;;
39930;SDS011;26635;-35.248;149.138;2023-07-13T11:21:02;9.18;;;4.53;;
39930;SDS011;26635;-35.248;149.138;2023-07-13T11:32:22;39.88;;;18.00;;
39930;SDS011;26635;-35.248;149.138;2023-07-13T11:34:56;32.60;;;16.25;;
39930;SDS011;26635;-35.248;149.138;2023-07-13T11:37:27;29.67;;;13.77;;
39930;SDS011;26635;-35.248;149.138;2023-07-13T11:39:59;34.72;;;14.82;;
39930;SDS011;26635;-35.248;149.138;2023-07-13T11:42:52;17.25;;;9.15;;
39930;SDS011;26635;-35.248;149.138;2023-07-13T11:45:50;13.00;;;7.15;;
39930;SDS011;26635;-35.248;149.138;2023-07-13T11:48:39;14.95;;;7.07;;
39930;SDS011;26635;-35.248;149.138;2023-07-13T11:51:14;13.38;;;6.80;;
39930;SDS011;26635;-35.248;149.138;2023-07-13T11:54:19;13.18;;;6.65;;
39930;SDS011;26635;-35.248;149.138;2023-07-13T11:57:23;18.30;;;9.15;;
39930;SDS011;26635;-35.248;149.138;2023-07-13T11:59:54;22.52;;;9.73;;
39930;SDS011;26635;-35.248;149.138;2023-07-13T12:05:09;20.05;;;11.65;;
39930;SDS011;26635;-35.248;149.138;2023-07-13T12:07:44;16.30;;;10.57;;
39930;SDS011;26635;-35.248;149.138;2023-07-13T12:15:45;22.63;;;11.88;;
39930;SDS011;26635;-35.248;149.138;2023-07-13T12:18:22;22.83;;;11.38;;
39930;SDS011;26635;-35.248;149.138;2023-07-13T12:21:09;22.17;;;10.55;;
39930;SDS011;26635;-35.248;149.138;2023-07-13T12:23:45;22.00;;;11.10;;
39930;SDS011;26635;-35.248;149.138;2023-07-13T12:26:24;21.17;;;11.25;;
39930;SDS011;26635;-35.248;149.138;2023-07-13T12:28:56;19.00;;;9.13;;
39930;SDS011;26635;-35.248;149.138;2023-07-13T12:34:13;18.20;;;8.98;;
39930;SDS011;26635;-35.248;149.138;2023-07-13T12:37:13;15.50;;;8.60;;
39930;SDS011;26635;-35.248;149.138;2023-07-13T12:39:45;15.95;;;8.48;;
39930;SDS011;26635;-35.248;149.138;2023-07-13T12:45:17;14.63;;;7.67;;
39930;SDS011;26635;-35.248;149.138;2023-07-13T12:47:57;16.90;;;9.43;;
39930;SDS011;26635;-35.248;149.138;2023-07-13T12:50:42;13.05;;;7.80;;
39930;SDS011;26635;-35.248;149.138;2023-07-13T12:53:23;13.85;;;5.10;;
39930;SDS011;26635;-35.248;149.138;2023-07-13T12:56:09;10.13;;;5.00;;
39930;SDS011;26635;-35.248;149.138;2023-07-13T12:58:57;9.70;;;5.55;;
39930;SDS011;26635;-35.248;149.138;2023-07-13T13:01:34;6.90;;;4.68;;
39930;SDS011;26635;-35.248;149.138;2023-07-13T13:04:08;7.18;;;3.90;;
39930;SDS011;26635;-35.248;149.138;2023-07-13T13:06:41;8.80;;;4.50;;
39930;SDS011;26635;-35.248;149.138;2023-07-13T13:09:13;7.45;;;4.10;;
39930;SDS011;26635;-35.248;149.138;2023-07-13T13:11:48;7.97;;;4.05;;
39930;SDS011;26635;-35.248;149.138;2023-07-13T13:14:24;6.38;;;3.40;;
39930;SDS011;26635;-35.248;149.138;2023-07-13T13:16:54;9.50;;;4.03;;
39930;SDS011;26635;-35.248;149.138;2023-07-13T13:19:35;7.53;;;3.97;;
39930;SDS011;26635;-35.248;149.138;2023-07-13T13:22:07;9.20;;;5.18;;
39930;SDS011;26635;-35.248;149.138;2023-07-13T13:24:41;7.22;;;3.58;;
39930;SDS011;26635;-35.248;149.138;2023-07-13T13:27:15;7.85;;;3.97;;
39930;SDS011;26635;-35.248;149.138;2023-07-13T13:30:03;6.93;;;3.88;;
39930;SDS011;26635;-35.248;149.138;2023-07-13T13:32:49;10.90;;;5.03;;
39930;SDS011;26635;-35.248;149.138;2023-07-13T13:35:22;8.75;;;4.70;;
39930;SDS011;26635;-35.248;149.138;2023-07-13T13:37:58;8.63;;;4.50;;
39930;SDS011;26635;-35.248;149.138;2023-07-13T13:40:28;10.90;;;6.07;;
39930;SDS011;26635;-35.248;149.138;2023-07-13T13:43:00;8.23;;;5.00;;
39930;SDS011;26635;-35.248;149.138;2023-07-13T13:45:34;9.98;;;4.32;;
39930;SDS011;26635;-35.248;149.138;2023-07-13T13:48:19;9.48;;;4.80;;
39930;SDS011;26635;-35.248;149.138;2023-07-13T13:51:00;5.32;;;2.97;;
39930;SDS011;26635;-35.248;149.138;2023-07-13T13:53:46;8.65;;;3.17;;
39930;SDS011;26635;-35.248;149.138;2023-07-13T13:56:18;5.47;;;2.08;;
39930;SDS011;26635;-35.248;149.138;2023-07-13T13:58:56;4.90;;;2.30;;
39930;SDS011;26635;-35.248;149.138;2023-07-13T14:01:31;5.15;;;2.00;;
39930;SDS011;26635;-35.248;149.138;2023-07-13T14:04:18;5.00;;;2.13;;
39930;SDS011;26635;-35.248;149.138;2023-07-13T14:06:52;5.35;;;2.63;;
39930;SDS011;26635;-35.248;149.138;2023-07-13T14:09:26;6.35;;;2.30;;
39930;SDS011;26635;-35.248;149.138;2023-07-13T14:12:04;8.63;;;3.20;;
39930;SDS011;26635;-35.248;149.138;2023-07-13T14:14:43;6.25;;;2.85;;
39930;SDS011;26635;-35.248;149.138;2023-07-13T14:17:22;9.80;;;4.55;;
39930;SDS011;26635;-35.248;149.138;2023-07-13T14:20:03;9.33;;;3.93;;
39930;SDS011;26635;-35.248;149.138;2023-07-13T14:22:46;9.85;;;5.38;;
39930;SDS011;26635;-35.248;149.138;2023-07-13T14:25:31;11.25;;;5.35;;
39930;SDS011;26635;-35.248;149.138;2023-07-13T14:28:20;6.97;;;3.72;;
39930;SDS011;26635;-35.248;149.138;2023-07-13T14:31:09;6.93;;;4.40;;
39930;SDS011;26635;-35.248;149.138;2023-07-13T14:34:03;8.40;;;3.20;;
39930;SDS011;26635;-35.248;149.138;2023-07-13T14:36:45;6.80;;;2.85;;
39930;SDS011;26635;-35.248;149.138;2023-07-13T14:39:46;7.25;;;3.40;;
39930;SDS011;26635;-35.248;149.138;2023-07-13T14:42:32;6.17;;;2.97;;
39930;SDS011;26635;-35.248;149.138;2023-07-13T14:45:15;4.30;;;2.30;;
39930;SDS011;26635;-35.248;149.138;2023-07-13T14:48:46;4.38;;;2.45;;
39930;SDS011;26635;-35.248;149.138;2023-07-13T14:51:19;4.47;;;2.40;;
39930;SDS011;26635;-35.248;149.138;2023-07-13T14:53:52;5.55;;;2.60;;
39930;SDS011;26635;-35.248;149.138;2023-07-13T14:57:15;5.13;;;2.30;;
39930;SDS011;26635;-35.248;149.138;2023-07-13T14:59:51;6.18;;;2.53;;
39930;SDS011;26635;-35.248;149.138;2023-07-13T15:02:45;8.23;;;3.88;;
39930;SDS011;26635;-35.248;149.138;2023-07-13T15:05:23;7.07;;;3.15;;
39930;SDS011;26635;-35.248;149.138;2023-07-13T15:08:08;6.90;;;3.15;;
39930;SDS011;26635;-35.248;149.138;2023-07-13T15:11:31;6.00;;;3.70;;
39930;SDS011;26635;-35.248;149.138;2023-07-13T15:14:11;10.75;;;4.40;;
39930;SDS011;26635;-35.248;149.138;2023-07-13T15:16:54;6.78;;;3.75;;
39930;SDS011;26635;-35.248;149.138;2023-07-13T15:19:41;8.67;;;3.00;;
39930;SDS011;26635;-35.248;149.138;2023-07-13T15:22:29;6.43;;;3.03;;
39930;SDS011;26635;-35.248;149.138;2023-07-13T15:25:20;7.55;;;2.75;;
39930;SDS011;26635;-35.248;149.138;2023-07-13T15:28:37;7.22;;;2.95;;
39930;SDS011;26635;-35.248;149.138;2023-07-13T15:31:28;6.67;;;3.50;;
39930;SDS011;26635;-35.248;149.138;2023-07-13T15:34:14;6.50;;;3.05;;
39930;SDS011;26635;-35.248;149.138;2023-07-13T15:37:17;7.43;;;3.00;;
39930;SDS011;26635;-35.248;149.138;2023-07-13T15:44:42;6.53;;;3.20;;
39930;SDS011;26635;-35.248;149.138;2023-07-13T15:47:55;6.07;;;2.87;;
39930;SDS011;26635;-35.248;149.138;2023-07-13T15:50:39;6.10;;;2.95;;
39930;SDS011;26635;-35.248;149.138;2023-07-13T15:53:27;5.37;;;3.00;;
39930;SDS011;26635;-35.248;149.138;2023-07-13T15:56:24;8.77;;;3.73;;